Time;durP1;ratioP1;P1;durP2;ratioP2;P2;SDS_P1;SDS_P2;PMS_P1;PMS_P2;Temp;Humidity;BMP_temperature;BMP_pressure;BME280_temperature;BME280_humidity;BME280_pressure;Samples;Min_cycle;Max_cycle;Signal;HPM_P1;HPM_P2
2022/06/05 00:01:37;;;;;;;7.18;6.57;;;;;;;15.01;58.22;101289.22;5013581;28;20025;-23
2022/06/05 00:04:25;;;;;;;7.80;7.10;;;;;;;14.87;58.05;101285.91;5011650;28;20033;-23
2022/06/05 00:07:16;;;;;;;7.38;6.78;;;;;;;14.83;58.27;101286.88;5013868;28;20030;-23
2022/06/05 00:09:53;;;;;;;7.10;6.43;;;;;;;14.80;58.25;101286.94;5012163;28;20057;-23
2022/06/05 00:12:22;;;;;;;7.70;7.05;;;;;;;14.81;58.42;101281.59;5007186;28;20025;-23
2022/06/05 00:14:48;;;;;;;7.53;6.95;;;;;;;14.70;58.23;101284.41;4989109;28;20518;-23
2022/06/05 00:17:19;;;;;;;7.15;6.55;;;;;;;14.67;58.53;101276.47;5014068;28;20029;-23
2022/06/05 00:19:48;;;;;;;7.93;7.22;;;;;;;14.69;58.51;101277.34;5012882;28;20034;-23
2022/06/05 00:22:14;;;;;;;7.63;6.97;;;;;;;14.59;58.37;101278.38;5012069;28;20030;-23
2022/06/05 00:24:40;;;;;;;8.07;7.35;;;;;;;14.55;58.72;101282.88;4999145;28;20014;-23
2022/06/05 00:27:18;;;;;;;7.25;6.65;;;;;;;14.52;58.76;101282.94;5010125;28;20048;-23
2022/06/05 00:30:21;;;;;;;7.80;7.10;;;;;;;14.52;58.73;101279.38;5013185;28;20045;-23
2022/06/05 00:33:24;;;;;;;7.90;7.28;;;;;;;14.50;58.71;101277.63;5013405;28;20022;-23
2022/06/05 00:35:58;;;;;;;7.88;7.18;;;;;;;14.44;58.93;101276.88;5012171;28;20057;-23
2022/06/05 00:39:01;;;;;;;6.88;6.25;;;;;;;14.36;58.83;101271.66;4994801;28;20033;-23
2022/06/05 00:41:39;;;;;;;7.50;6.90;;;;;;;14.36;58.92;101276.97;4947011;29;20514;-23
2022/06/05 00:44:05;;;;;;;7.65;7.05;;;;;;;14.34;58.87;101270.84;4947874;28;20031;-23
2022/06/05 00:46:32;;;;;;;6.80;6.25;;;;;;;14.31;58.79;101273.53;5012990;28;20108;-23
2022/06/05 00:49:06;;;;;;;7.22;6.63;;;;;;;14.24;58.83;101278.91;4999642;28;20064;-23
2022/06/05 00:51:31;;;;;;;7.15;6.55;;;;;;;14.19;58.98;101282.53;5012299;28;20053;-23
2022/06/05 00:53:57;;;;;;;7.85;6.85;;;;;;;14.15;58.97;101283.47;4998731;28;20045;-23
2022/06/05 00:56:22;;;;;;;7.43;6.78;;;;;;;14.13;58.79;101282.63;5015803;28;20117;-23
2022/06/05 00:58:54;;;;;;;7.20;6.60;;;;;;;14.10;58.96;101278.22;4996846;28;20033;-23
2022/06/05 01:01:20;;;;;;;7.70;7.00;;;;;;;14.07;59.05;101271.19;5013200;28;20033;-23
2022/06/05 01:03:48;;;;;;;7.57;6.32;;;;;;;14.04;58.98;101262.41;4980104;28;20092;-23
2022/06/05 01:06:14;;;;;;;7.38;6.75;;;;;;;14.04;58.87;101259.78;4996569;28;20022;-23
2022/06/05 01:08:40;;;;;;;7.32;6.72;;;;;;;13.99;58.93;101259.81;5012903;28;20076;-23
2022/06/05 01:11:27;;;;;;;8.75;7.95;;;;;;;13.97;58.91;101248.34;5014340;28;20030;-23
2022/06/05 01:14:26;;;;;;;7.60;7.00;;;;;;;13.90;59.13;101263.47;5010238;28;20029;-23
2022/06/05 01:16:58;;;;;;;8.10;7.40;;;;;;;13.88;59.38;101265.28;5010389;28;20404;-23
2022/06/05 01:20:03;;;;;;;7.45;6.85;;;;;;;13.89;59.36;101267.03;5014131;28;20500;-23
2022/06/05 01:23:09;;;;;;;7.20;6.60;;;;;;;13.81;59.34;101272.41;4962005;28;20031;-23
2022/06/05 01:26:07;;;;;;;7.00;6.40;;;;;;;13.81;59.39;101266.25;5013846;28;20057;-23
2022/06/05 01:28:40;;;;;;;7.85;7.28;;;;;;;13.76;59.28;101262.78;4994167;28;20034;-23
2022/06/05 01:31:46;;;;;;;7.57;6.97;;;;;;;13.76;59.18;101266.31;4979622;28;20105;-23
2022/06/05 01:34:48;;;;;;;7.15;6.55;;;;;;;13.73;59.31;101264.59;5013114;28;20483;-23
2022/06/05 01:37:36;;;;;;;7.60;7.10;;;;;;;13.72;59.33;101267.25;4897772;29;20068;-23
2022/06/05 01:40:08;;;;;;;7.47;6.90;;;;;;;13.70;59.48;101264.63;5007483;28;20038;-23
2022/06/05 01:42:38;;;;;;;7.68;6.97;;;;;;;13.62;59.33;101277.09;5012741;28;20091;-22
2022/06/05 01:45:09;;;;;;;7.60;7.00;;;;;;;13.57;59.49;101273.63;5010763;28;20054;-23
2022/06/05 01:47:45;;;;;;;7.22;6.63;;;;;;;13.54;59.61;101273.66;5009356;28;20508;-23
2022/06/05 01:50:20;;;;;;;7.70;6.80;;;;;;;13.52;59.55;101259.53;5013809;28;20026;-22
2022/06/05 01:52:57;;;;;;;6.97;6.47;;;;;;;13.49;59.88;101262.22;5010470;28;20036;-23
2022/06/05 01:55:27;;;;;;;7.30;6.70;;;;;;;13.45;59.54;101270.19;5013043;28;20014;-23
2022/06/05 01:57:58;;;;;;;8.02;7.32;;;;;;;13.41;59.86;101262.28;5031609;22;20046;-22
2022/06/05 02:00:24;;;;;;;;;;;;;;;13.40;59.92;101261.41;5010116;28;20029;-22
2022/06/05 02:03:10;;;;;;;7.38;6.78;;;;;;;13.36;59.97;101257.03;4991347;28;19924;-22
2022/06/05 02:05:45;;;;;;;8.05;7.35;;;;;;;13.37;59.88;101248.19;5010419;28;20026;-22
2022/06/05 02:08:18;;;;;;;6.90;6.30;;;;;;;13.30;60.11;101250.03;5006585;28;20049;-22
2022/06/05 02:11:22;;;;;;;8.07;7.38;;;;;;;13.34;60.10;101245.59;5009877;28;20428;-22
2022/06/05 02:13:54;;;;;;;7.53;6.93;;;;;;;13.28;60.27;101243.00;5009217;28;20231;-22
2022/06/05 02:16:19;;;;;;;7.78;6.80;;;;;;;13.27;60.17;101239.47;5009479;28;20419;-22
2022/06/05 02:18:48;;;;;;;7.45;6.85;;;;;;;13.22;60.43;101243.97;5007969;28;20507;-22
2022/06/05 02:21:13;;;;;;;7.15;6.55;;;;;;;13.24;60.14;101249.25;5008138;28;20022;-24
2022/06/05 02:23:39;;;;;;;7.18;6.65;;;;;;;13.19;60.35;101252.81;5002636;28;20036;-22
2022/06/05 02:26:09;;;;;;;7.80;7.18;;;;;;;13.16;60.09;101246.66;5008950;28;20067;-22
2022/06/05 02:28:36;;;;;;;7.65;6.85;;;;;;;13.14;60.33;101248.47;5004676;28;20108;-22
2022/06/05 02:31:30;;;;;;;7.47;6.88;;;;;;;13.09;60.13;101252.03;5006674;28;20484;-22
2022/06/05 02:34:17;;;;;;;7.75;7.10;;;;;;;13.07;60.77;101247.63;5002895;28;20038;-22
2022/06/05 02:37:20;;;;;;;7.55;6.95;;;;;;;13.00;60.59;101240.66;5007746;28;20104;-22
2022/06/05 02:40:10;;;;;;;7.93;7.32;;;;;;;12.95;60.33;101233.63;5006128;28;20029;-22
2022/06/05 02:42:49;;;;;;;8.32;7.22;;;;;;;12.95;60.43;101238.91;5008824;28;20053;-22
2022/06/05 02:45:14;;;;;;;7.10;6.60;;;;;;;12.94;60.26;101241.59;5002499;28;20026;-22
2022/06/05 02:48:04;;;;;;;7.30;6.70;;;;;;;12.88;60.34;101239.91;5008237;28;20022;-22
2022/06/05 02:51:13;;;;;;;7.60;7.07;;;;;;;12.86;60.38;101239.03;5020026;28;20331;-22
2022/06/05 02:53:56;;;;;;;7.15;6.65;;;;;;;12.78;60.10;101240.88;4965124;28;20073;-22
2022/06/05 02:56:27;;;;;;;7.57;6.88;;;;;;;12.78;60.36;101246.16;4996939;28;20026;-22
2022/06/05 02:58:56;;;;;;;8.02;7.30;;;;;;;12.87;60.40;101251.34;5007997;28;20084;-22
2022/06/05 03:04:18;;;;;;;8.23;7.63;;;;;;;12.74;60.64;101255.03;5008383;28;20044;-22
2022/06/05 03:06:43;;;;;;;7.82;7.18;;;;;;;12.73;60.74;101255.91;5008408;28;20018;-22
2022/06/05 03:09:09;;;;;;;7.78;7.18;;;;;;;12.69;60.80;101253.28;5007919;28;20029;-22
2022/06/05 03:11:34;;;;;;;8.05;7.32;;;;;;;12.68;60.30;101251.50;5007199;28;20116;-22
2022/06/05 03:14:00;;;;;;;8.07;7.28;;;;;;;12.65;61.00;101259.50;5008424;28;20037;-22
2022/06/05 03:16:26;;;;;;;8.38;7.40;;;;;;;12.66;60.63;101257.72;5007981;28;20076;-22
2022/06/05 03:18:51;;;;;;;7.57;7.03;;;;;;;12.65;60.84;101250.69;5007669;28;20022;-22
2022/06/05 03:21:17;;;;;;;8.05;7.35;;;;;;;12.64;60.95;101236.56;5007985;28;20029;-22
2022/06/05 03:23:42;;;;;;;8.00;7.30;;;;;;;12.64;60.96;101236.56;5007417;28;20033;-22
2022/06/05 03:26:12;;;;;;;8.05;7.35;;;;;;;12.61;60.67;101235.72;5008944;28;20079;-22
2022/06/05 03:28:38;;;;;;;8.20;7.40;;;;;;;12.63;60.99;101240.09;5007736;28;20491;-22
2022/06/05 03:31:06;;;;;;;8.07;7.50;;;;;;;12.58;60.72;101239.28;5005814;28;20026;-22
2022/06/05 03:33:31;;;;;;;7.35;6.72;;;;;;;12.58;60.68;101239.28;5007602;28;20026;-23
2022/06/05 03:35:56;;;;;;;8.45;7.55;;;;;;;12.53;60.96;101236.66;5008292;28;20067;-22
2022/06/05 03:38:37;;;;;;;7.88;7.18;;;;;;;12.54;60.91;101248.13;5007575;28;20026;-22
2022/06/05 03:41:04;;;;;;;7.75;7.15;;;;;;;12.54;61.01;101248.13;5004543;28;20033;-23
2022/06/05 03:43:29;;;;;;;8.10;7.40;;;;;;;12.52;60.74;101249.91;5005119;28;20403;-22
2022/06/05 03:46:02;;;;;;;7.47;6.78;;;;;;;12.50;60.91;101235.81;5006675;28;20476;-22
2022/06/05 03:48:27;;;;;;;7.65;7.05;;;;;;;12.44;61.22;101232.31;5008178;28;20054;-22
2022/06/05 03:50:53;;;;;;;7.32;6.75;;;;;;;12.47;61.23;101233.19;5005525;28;20058;-22
2022/06/05 03:53:18;;;;;;;7.68;7.05;;;;;;;12.43;61.39;101220.00;5008035;28;20107;-22
2022/06/05 03:55:43;;;;;;;7.50;6.90;;;;;;;12.45;60.85;101218.19;5006824;28;20029;-22
2022/06/05 03:58:14;;;;;;;7.22;6.65;;;;;;;12.44;61.04;101221.72;5011598;28;20026;-22
2022/06/05 04:00:40;;;;;;;;;;;;;;;12.51;60.87;101219.91;5010933;28;20036;-23
2022/06/05 04:03:05;;;;;;;7.68;6.97;;;;;;;12.49;61.06;101223.47;5011548;28;19921;-22
2022/06/05 04:05:31;;;;;;;7.63;7.03;;;;;;;12.51;60.96;101219.06;5009236;28;20585;-22
2022/06/05 04:07:56;;;;;;;7.97;7.28;;;;;;;12.57;61.09;101211.94;5011213;28;20018;-22
2022/06/05 04:10:21;;;;;;;8.00;7.40;;;;;;;12.50;61.15;101209.38;5009620;28;20057;-22
2022/06/05 04:12:47;;;;;;;7.72;7.13;;;;;;;12.56;61.31;101193.41;5010483;28;20022;-22
2022/06/05 04:15:14;;;;;;;8.10;7.40;;;;;;;12.56;61.26;101185.47;5012924;28;20022;-22
2022/06/05 04:17:39;;;;;;;7.28;6.68;;;;;;;12.59;61.42;101182.81;5011766;28;20121;-22
2022/06/05 04:20:06;;;;;;;7.72;7.05;;;;;;;12.56;61.32;101169.59;5007628;28;20113;-22
2022/06/05 04:22:36;;;;;;;7.50;6.90;;;;;;;12.56;61.04;101166.97;5006339;28;20282;-22
2022/06/05 04:25:04;;;;;;;7.70;7.10;;;;;;;12.61;61.05;101165.16;5026474;28;20034;-22
2022/06/05 04:27:30;;;;;;;6.93;6.43;;;;;;;12.65;61.18;101163.34;5009190;28;20467;-22
2022/06/05 04:29:58;;;;;;;7.50;6.90;;;;;;;12.68;60.90;101165.97;5010473;28;20497;-22
2022/06/05 04:32:23;;;;;;;7.25;6.65;;;;;;;12.76;61.40;101168.53;5010270;28;20653;-22
2022/06/05 04:35:08;;;;;;;7.03;6.53;;;;;;;12.83;61.93;101164.94;5008868;28;20036;-22
2022/06/05 04:37:33;;;;;;;7.10;6.50;;;;;;;12.85;61.76;101163.16;5010867;28;20022;-22
2022/06/05 04:39:58;;;;;;;7.93;7.22;;;;;;;12.91;61.21;101167.50;5008289;28;20156;-22
2022/06/05 04:42:24;;;;;;;7.05;6.45;;;;;;;12.98;60.82;101163.91;5011492;28;20018;-22
2022/06/05 04:44:49;;;;;;;6.93;6.38;;;;;;;13.03;61.32;101162.06;5010253;28;20030;-22
2022/06/05 04:47:14;;;;;;;7.22;6.53;;;;;;;13.05;62.42;101159.41;5011026;28;20088;-22
2022/06/05 04:49:40;;;;;;;7.45;6.75;;;;;;;13.17;61.13;101159.25;5011122;28;20112;-22
2022/06/05 04:52:05;;;;;;;7.57;6.88;;;;;;;13.20;61.71;101159.22;5010340;28;20491;-22
2022/06/05 04:55:05;;;;;;;7.20;6.50;;;;;;;13.30;62.42;101170.56;5011769;28;20283;-22
2022/06/05 04:57:30;;;;;;;7.07;6.40;;;;;;;13.35;62.38;101159.94;5011168;28;20120;-22
2022/06/05 04:59:55;;;;;;;7.15;6.55;;;;;;;13.41;62.09;101170.41;5010739;28;20049;-22
2022/06/05 05:02:20;;;;;;;7.43;6.75;;;;;;;13.47;62.46;101169.47;5012289;28;20034;-22
2022/06/05 05:04:48;;;;;;;7.88;7.18;;;;;;;13.54;61.91;101167.66;5009836;28;20025;-22
2022/06/05 05:07:15;;;;;;;7.93;7.32;;;;;;;13.62;61.40;101163.13;5007602;28;20029;-22
2022/06/05 05:09:40;;;;;;;7.30;6.70;;;;;;;13.68;61.64;101165.72;5009607;28;20057;-22
2022/06/05 05:12:06;;;;;;;7.63;7.00;;;;;;;13.72;62.10;101156.81;5007598;28;20049;-22
2022/06/05 05:14:32;;;;;;;7.43;6.72;;;;;;;13.78;63.57;101152.31;5011282;28;20030;-22
2022/06/05 05:16:57;;;;;;;7.07;6.47;;;;;;;13.83;63.10;101155.75;5009542;28;20029;-22
2022/06/05 05:19:22;;;;;;;10.90;7.00;;;;;;;13.91;63.20;101166.25;5010652;28;20037;-22
2022/06/05 05:21:48;;;;;;;7.28;6.65;;;;;;;13.95;63.36;101160.88;5009878;28;20056;-22
2022/06/05 05:24:13;;;;;;;7.20;6.60;;;;;;;14.02;63.12;101164.31;5008925;28;20561;-23
2022/06/05 05:26:38;;;;;;;7.55;6.95;;;;;;;14.09;62.52;101167.75;5010948;28;20030;-22
2022/06/05 05:29:04;;;;;;;8.18;7.15;;;;;;;14.15;62.54;101172.97;5010904;28;20026;-23
2022/06/05 05:31:47;;;;;;;7.55;6.82;;;;;;;14.23;62.82;101176.34;5005542;28;20056;-22
2022/06/05 05:34:14;;;;;;;7.82;7.13;;;;;;;14.31;62.57;101183.31;5008916;28;20086;-22
2022/06/05 05:36:39;;;;;;;8.02;7.13;;;;;;;14.38;63.50;101187.63;5011030;28;20021;-22
2022/06/05 05:42:07;;;;;;;8.45;7.05;;;;;;;14.55;64.11;101191.75;5011540;28;20112;-22
2022/06/05 05:44:47;;;;;;;8.00;7.30;;;;;;;14.65;63.47;101193.34;5010474;28;20383;-22
2022/06/05 05:47:18;;;;;;;9.20;7.93;;;;;;;14.73;63.22;101183.47;5004918;28;20045;-24
2022/06/05 05:49:43;;;;;;;;;;;;;;;14.83;63.06;101183.31;5010469;28;20061;-22
2022/06/05 05:52:09;;;;;;;7.75;6.95;;;;;;;14.95;63.33;101187.53;5008131;28;20011;-22
2022/06/05 05:54:36;;;;;;;7.55;6.95;;;;;;;15.04;63.39;101186.47;5009641;28;20030;-22
2022/06/05 05:57:02;;;;;;;7.90;7.20;;;;;;;15.09;63.00;101184.59;5009999;28;20539;-22
2022/06/05 05:59:33;;;;;;;8.85;7.65;;;;;;;15.18;62.99;101176.47;5008326;28;20395;-22
2022/06/05 06:01:58;;;;;;;8.50;7.70;;;;;;;15.25;63.42;101170.06;5005790;28;20502;-22
2022/06/05 06:04:24;;;;;;;8.20;7.35;;;;;;;15.36;63.72;101169.00;5006776;28;20030;-22
2022/06/05 06:06:53;;;;;;;8.23;7.53;;;;;;;15.47;63.40;101174.09;5006379;28;20021;-22
2022/06/05 06:09:19;;;;;;;7.68;7.07;;;;;;;15.60;63.37;101166.69;5001864;28;20029;-22
2022/06/05 06:11:46;;;;;;;8.15;7.38;;;;;;;15.70;62.26;101170.91;5007827;28;20045;-22
2022/06/05 06:14:11;;;;;;;8.60;7.88;;;;;;;15.75;63.23;101161.06;5008384;28;20028;-22
2022/06/05 06:16:37;;;;;;;9.35;8.48;;;;;;;15.86;63.49;101166.13;5010063;28;20395;-22
2022/06/05 06:19:04;;;;;;;7.90;7.20;;;;;;;15.96;62.65;101172.13;5009232;28;20040;-22
2022/06/05 06:21:30;;;;;;;8.30;7.32;;;;;;;16.10;62.62;101171.78;5008853;28;20025;-22
2022/06/05 06:23:55;;;;;;;8.68;7.75;;;;;;;16.23;62.20;101166.16;5009093;28;20121;-23
2022/06/05 06:26:20;;;;;;;7.72;7.03;;;;;;;16.32;62.56;101147.31;5008567;28;20049;-22
2022/06/05 06:28:47;;;;;;;8.98;8.13;;;;;;;16.41;62.92;101140.88;5004105;28;20060;-22
2022/06/05 06:31:15;;;;;;;8.50;7.70;;;;;;;16.49;62.86;101138.88;5009367;28;20471;-22
2022/06/05 06:33:41;;;;;;;8.43;7.65;;;;;;;16.62;62.62;101141.22;5006448;28;20088;-22
2022/06/05 06:36:09;;;;;;;8.90;8.10;;;;;;;16.76;62.12;101141.72;5008244;28;20025;-22
2022/06/05 06:38:35;;;;;;;9.18;8.38;;;;;;;16.89;62.42;101136.03;5009846;28;20023;-22
2022/06/05 06:41:05;;;;;;;8.73;8.02;;;;;;;17.02;62.24;101133.91;5009340;28;20037;-22
2022/06/05 06:43:32;;;;;;;8.93;7.97;;;;;;;17.13;62.52;101125.63;5005974;28;20056;-22
2022/06/05 06:45:58;;;;;;;9.32;8.40;;;;;;;17.25;62.18;101121.72;5002990;28;20033;-22
2022/06/05 06:48:24;;;;;;;8.35;7.63;;;;;;;17.36;62.29;101105.38;5007838;28;20068;-22
2022/06/05 06:50:52;;;;;;;9.05;8.32;;;;;;;17.45;62.25;101105.13;5006079;28;20053;-22
2022/06/05 06:53:17;;;;;;;9.43;8.52;;;;;;;17.54;62.61;101101.31;5005046;28;20033;-22
2022/06/05 06:55:43;;;;;;;9.13;8.23;;;;;;;17.66;61.83;101089.34;5008920;28;20022;-22
2022/06/05 06:58:08;;;;;;;9.90;8.93;;;;;;;17.77;61.46;101089.88;5007110;28;20467;-22
2022/06/05 07:00:33;;;;;;;8.63;7.88;;;;;;;17.89;61.55;101080.59;5009702;28;20021;-22
2022/06/05 07:02:59;;;;;;;8.40;7.70;;;;;;;18.05;61.85;101080.09;5007827;28;20447;-22
2022/06/05 07:05:24;;;;;;;8.38;7.68;;;;;;;18.20;61.64;101073.34;5009771;28;20030;-22
2022/06/05 07:07:49;;;;;;;8.77;7.97;;;;;;;18.29;61.64;101073.06;5008387;28;20017;-22
2022/06/05 07:10:14;;;;;;;8.73;8.00;;;;;;;18.46;61.40;101074.25;5007317;28;20044;-22
2022/06/05 07:12:40;;;;;;;8.93;8.23;;;;;;;18.54;61.42;101061.47;5009332;28;20021;-22
2022/06/05 07:15:07;;;;;;;9.88;9.05;;;;;;;18.65;61.19;101062.91;5008835;28;20025;-22
2022/06/05 07:17:33;;;;;;;8.70;7.88;;;;;;;18.78;60.87;101069.53;5007245;28;20038;-23
2022/06/05 07:19:58;;;;;;;10.02;9.13;;;;;;;18.88;60.71;101064.72;5006199;28;20030;-22
2022/06/05 07:22:23;;;;;;;9.48;8.57;;;;;;;19.02;61.22;101066.84;5002414;28;20033;-22
2022/06/05 07:24:49;;;;;;;9.65;8.88;;;;;;;19.15;60.70;101056.59;5005103;28;20032;-22
2022/06/05 07:27:14;;;;;;;10.05;9.25;;;;;;;19.28;60.36;101059.66;5001549;28;20044;-22
2022/06/05 07:29:39;;;;;;;9.30;8.50;;;;;;;19.41;60.86;101057.34;5006391;28;20031;-22
2022/06/05 07:32:05;;;;;;;10.40;9.40;;;;;;;19.51;60.31;101057.88;5009055;28;20388;-22
2022/06/05 07:34:30;;;;;;;10.40;9.45;;;;;;;19.63;60.14;101060.97;5009882;28;20034;-22
2022/06/05 07:36:58;;;;;;;9.32;8.63;;;;;;;19.79;60.53;101062.06;5010194;28;20034;-23
2022/06/05 07:40:06;;;;;;;10.73;9.77;;;;;;;19.98;60.42;101061.28;5007330;28;20073;-22
2022/06/05 07:42:35;;;;;;;10.23;9.23;;;;;;;20.13;60.28;101049.06;5026044;28;20483;-22
2022/06/05 07:45:00;;;;;;;9.90;9.10;;;;;;;20.25;60.00;101053.03;5009416;28;20049;-22
2022/06/05 07:47:26;;;;;;;10.63;9.73;;;;;;;20.35;60.11;101040.97;5010867;28;20036;-22
2022/06/05 07:49:51;;;;;;;10.10;9.20;;;;;;;20.50;59.77;101043.88;5010559;28;20475;-22
2022/06/05 07:55:00;;;;;;;10.02;9.15;;;;;;;20.80;59.16;101038.06;5010280;28;20029;-22
2022/06/05 07:57:25;;;;;;;10.27;9.38;;;;;;;20.91;59.10;101042.97;5005465;28;20435;-22
2022/06/05 07:59:50;;;;;;;9.98;9.07;;;;;;;21.01;59.50;101038.03;4999359;28;20034;-22
2022/06/05 08:02:27;;;;;;;9.95;9.18;;;;;;;21.15;59.00;101032.00;5011038;28;20399;-22
2022/06/05 08:04:54;;;;;;;11.02;10.07;;;;;;;21.25;59.25;101025.28;5044954;22;20049;-20
2022/06/05 08:07:22;;;;;;;10.65;9.70;;;;;;;21.35;58.90;101022.13;5012534;28;20075;-20
2022/06/05 08:09:48;;;;;;;10.50;9.60;;;;;;;21.42;58.59;101026.25;4997230;28;20034;-20
2022/06/05 08:12:15;;;;;;;10.07;9.27;;;;;;;21.51;58.46;101022.25;5020215;28;20040;-20
2022/06/05 08:14:42;;;;;;;10.43;9.63;;;;;;;21.59;58.34;101025.41;5012980;28;20025;-20
2022/06/05 08:17:11;;;;;;;9.93;9.13;;;;;;;21.71;58.74;101023.06;4995035;28;20035;-19
2022/06/05 08:19:38;;;;;;;9.90;9.07;;;;;;;21.85;58.27;101020.56;4991384;28;20022;-20
2022/06/05 08:22:04;;;;;;;10.10;9.30;;;;;;;21.94;58.21;101013.81;4996339;28;20101;-20
2022/06/05 08:24:29;;;;;;;10.38;9.57;;;;;;;22.08;58.40;101009.56;4992240;28;20093;-20
2022/06/05 08:26:55;;;;;;;10.52;9.65;;;;;;;22.19;57.85;101001.81;4998272;28;20434;-20
2022/06/05 08:29:20;;;;;;;10.85;9.88;;;;;;;22.29;58.27;100997.69;4997813;28;20480;-20
2022/06/05 08:31:46;;;;;;;10.57;9.68;;;;;;;22.39;58.07;100991.81;4992638;28;20034;-20
2022/06/05 08:34:12;;;;;;;10.93;10.02;;;;;;;22.50;57.95;100993.91;4997081;28;20377;-20
2022/06/05 08:36:38;;;;;;;11.18;10.35;;;;;;;22.64;57.65;100994.06;4997641;28;20033;-20
2022/06/05 08:42:04;;;;;;;11.40;10.50;;;;;;;22.92;57.81;100997.03;4991154;28;20392;-20
2022/06/05 08:45:10;;;;;;;11.05;10.25;;;;;;;22.94;56.65;100987.91;5001590;28;20034;-20
2022/06/05 08:47:41;;;;;;;11.95;10.95;;;;;;;23.08;57.20;100986.28;4997317;28;20022;-20
2022/06/05 08:50:26;;;;;;;11.23;10.32;;;;;;;23.18;56.26;100986.63;4996790;28;20141;-20
2022/06/05 08:53:06;;;;;;;11.35;10.35;;;;;;;23.18;55.74;100987.47;5003495;28;20034;-20
2022/06/05 08:55:36;;;;;;;10.77;9.88;;;;;;;23.30;56.18;100988.59;4987878;28;20022;-20
2022/06/05 08:58:26;;;;;;;10.80;10.00;;;;;;;23.42;56.01;100992.44;4989168;28;20030;-20
2022/06/05 09:01:00;;;;;;;11.20;10.30;;;;;;;23.54;55.76;100984.59;4995318;28;20023;-20
2022/06/05 09:03:39;;;;;;;10.32;9.50;;;;;;;23.62;55.50;100986.81;4990488;28;20022;-21
2022/06/05 09:06:23;;;;;;;10.32;9.60;;;;;;;23.69;55.33;100983.66;5002715;28;20440;-20
2022/06/05 09:08:53;;;;;;;10.93;10.02;;;;;;;23.75;55.66;100982.44;4989892;28;20049;-21
2022/06/05 09:11:34;;;;;;;10.80;9.90;;;;;;;23.81;55.12;100982.03;4989332;28;20054;-21
2022/06/05 09:14:08;;;;;;;12.00;11.07;;;;;;;23.91;55.14;100976.97;4991537;28;20026;-20
2022/06/05 09:16:39;;;;;;;11.48;10.48;;;;;;;23.95;54.74;100973.13;4994550;28;20025;-20
2022/06/05 09:19:05;;;;;;;10.77;9.88;;;;;;;24.03;54.79;100974.47;4991987;28;20440;-20
2022/06/05 09:21:42;;;;;;;10.35;9.55;;;;;;;24.11;54.60;100974.91;4993222;28;20033;-20
2022/06/05 09:24:43;;;;;;;10.40;9.60;;;;;;;24.20;54.37;100986.94;4996534;28;20030;-19
2022/06/05 09:27:21;;;;;;;10.02;9.30;;;;;;;24.28;54.63;101002.66;4981401;28;20135;-21
2022/06/05 09:30:10;;;;;;;10.15;9.35;;;;;;;24.32;54.38;100998.78;4994100;28;20061;-21
2022/06/05 09:33:14;;;;;;;10.68;9.88;;;;;;;24.44;53.91;100984.53;4992713;28;20034;-21
2022/06/05 09:35:47;;;;;;;10.02;9.23;;;;;;;24.53;54.03;100983.09;4986615;28;20058;-20
2022/06/05 09:38:19;;;;;;;10.20;9.40;;;;;;;24.62;54.28;100976.25;4985388;28;20027;-21
2022/06/05 09:41:10;;;;;;;9.65;8.95;;;;;;;24.70;54.05;100971.22;4990217;28;20368;-20
2022/06/05 09:43:54;;;;;;;9.25;8.50;;;;;;;24.78;53.60;100959.97;4988812;28;20100;-21
2022/06/05 09:46:35;;;;;;;9.70;8.90;;;;;;;24.85;53.46;100950.50;4981974;28;20037;-20
2022/06/05 09:49:07;;;;;;;9.18;8.55;;;;;;;24.90;53.46;100947.53;4984924;28;20025;-20
2022/06/05 09:51:35;;;;;;;8.70;8.10;;;;;;;24.95;52.74;100934.63;4982946;28;20038;-21
2022/06/05 09:54:13;;;;;;;8.80;8.20;;;;;;;25.09;52.96;100935.50;4991043;28;20105;-20
2022/06/05 09:59:53;;;;;;;8.88;8.13;;;;;;;25.33;52.82;100907.81;4996542;28;20052;-21
2022/06/05 10:02:20;;;;;;;8.73;7.93;;;;;;;25.40;52.81;100901.03;4997185;28;20049;-20
2022/06/05 10:04:45;;;;;;;8.02;7.43;;;;;;;25.50;52.13;100896.75;4996389;28;20097;-21
2022/06/05 10:07:24;;;;;;;8.52;7.82;;;;;;;25.64;52.03;100897.63;4992619;28;20555;-20
2022/06/05 10:09:51;;;;;;;8.13;7.43;;;;;;;25.77;52.34;100897.66;5004495;28;20500;-20
2022/06/05 10:12:24;;;;;;;7.93;7.32;;;;;;;25.85;51.92;100889.91;4966378;28;20099;-21
2022/06/05 10:14:59;;;;;;;7.88;7.28;;;;;;;25.94;51.98;100895.63;4987150;28;20037;-20
2022/06/05 10:17:30;;;;;;;8.63;7.85;;;;;;;26.01;51.68;100899.59;4991169;28;20428;-20
2022/06/05 10:20:14;;;;;;;8.55;7.93;;;;;;;26.13;51.52;100903.25;4999904;28;20057;-20
2022/06/05 10:22:39;;;;;;;8.30;7.72;;;;;;;26.25;51.30;100899.66;4993474;28;20100;-20
2022/06/05 10:25:40;;;;;;;8.13;7.43;;;;;;;26.36;50.99;100895.34;4994557;28;20101;-19
2022/06/05 10:28:11;;;;;;;7.97;7.38;;;;;;;26.45;50.77;100894.69;4985102;28;20018;-21
2022/06/05 10:31:01;;;;;;;8.05;7.45;;;;;;;26.52;50.78;100885.16;4990076;28;20018;-20
2022/06/05 10:33:44;;;;;;;7.83;7.33;;;;;;;26.62;50.76;100887.16;4984904;28;20038;-21
2022/06/05 10:36:22;;;;;;;8.45;7.85;;;;;;;26.70;50.88;100890.16;4991008;28;20490;-21
2022/06/05 10:39:14;;;;;;;8.20;7.50;;;;;;;26.77;50.29;100880.59;4988753;28;20041;-21
2022/06/05 10:41:45;;;;;;;7.97;7.38;;;;;;;26.86;50.39;100878.19;4993646;28;20058;-20
2022/06/05 10:44:58;;;;;;;7.78;7.25;;;;;;;26.92;51.20;100866.91;4990954;28;20109;-20
2022/06/05 10:47:32;;;;;;;8.05;7.45;;;;;;;27.00;49.78;100858.22;4983666;28;20030;-21
2022/06/05 10:50:18;;;;;;;7.53;7.03;;;;;;;27.10;49.99;100858.38;4993532;28;20511;-20
2022/06/05 10:53:00;;;;;;;8.20;7.60;;;;;;;27.18;49.89;100847.84;4987010;28;20050;-21
2022/06/05 10:55:37;;;;;;;7.47;6.88;;;;;;;27.25;49.99;100840.97;4989780;28;20050;-21
2022/06/05 10:58:16;;;;;;;7.50;6.97;;;;;;;27.36;49.90;100840.13;4989028;28;20029;-21
2022/06/05 11:00:50;;;;;;;7.97;7.32;;;;;;;27.48;50.21;100846.41;4990285;28;20117;-20
2022/06/05 11:03:27;;;;;;;8.20;7.60;;;;;;;27.54;49.50;100835.09;4994772;28;20064;-20
2022/06/05 11:06:01;;;;;;;8.60;8.00;;;;;;;27.60;49.45;100822.94;4990064;28;20030;-20
2022/06/05 11:09:08;;;;;;;7.55;6.97;;;;;;;27.69;49.13;100820.50;4999244;28;20018;-20
2022/06/05 11:14:40;;;;;;;7.97;7.28;;;;;;;27.83;49.05;100812.13;4995722;28;20084;-20
2022/06/05 11:17:18;;;;;;;8.25;7.65;;;;;;;27.94;48.93;100810.41;4991099;28;20023;-21
2022/06/05 11:19:55;;;;;;;7.55;7.05;;;;;;;27.96;48.76;100805.69;4997022;28;20033;-19
2022/06/05 11:22:21;;;;;;;8.40;7.57;;;;;;;28.00;48.85;100797.19;4998628;28;20038;-21
2022/06/05 11:24:50;;;;;;;7.82;7.22;;;;;;;28.03;48.41;100796.09;4997842;28;20037;-20
2022/06/05 11:27:30;;;;;;;7.40;6.90;;;;;;;28.04;48.57;100789.69;4988393;28;20069;-21
2022/06/05 11:30:01;;;;;;;7.65;6.95;;;;;;;28.11;48.60;100790.06;4993636;28;20026;-20
2022/06/05 11:32:56;;;;;;;7.63;7.13;;;;;;;28.13;48.63;100780.81;4988856;28;20049;-21
2022/06/05 11:36:01;;;;;;;7.93;7.43;;;;;;;28.20;47.94;100781.16;4996878;28;20026;-21
2022/06/05 11:39:04;;;;;;;8.18;7.68;;;;;;;28.22;48.34;100775.59;4994165;28;20057;-20
2022/06/05 11:41:35;;;;;;;8.18;7.57;;;;;;;28.29;48.59;100769.59;4997263;28;20026;-20
2022/06/05 11:44:26;;;;;;;7.78;7.28;;;;;;;28.33;48.38;100766.59;4971905;28;20035;-20
2022/06/05 11:46:57;;;;;;;7.55;6.97;;;;;;;28.33;48.29;100753.91;4999364;28;20088;-20
2022/06/05 11:49:49;;;;;;;8.27;7.72;;;;;;;28.40;48.47;100744.25;4994577;28;20026;-20
2022/06/05 11:52:24;;;;;;;7.88;7.38;;;;;;;28.44;48.39;100742.13;4996527;28;20037;-20
2022/06/05 11:55:05;;;;;;;8.20;7.70;;;;;;;28.48;48.93;100750.91;4998602;28;20096;-20
2022/06/05 11:57:37;;;;;;;8.45;7.85;;;;;;;28.53;48.08;100746.81;5001681;28;20045;-20
2022/06/05 12:00:21;;;;;;;7.68;7.18;;;;;;;28.56;48.43;100746.56;4988431;28;20045;-21
2022/06/05 12:03:15;;;;;;;9.27;8.52;;;;;;;28.56;48.21;100742.97;5005201;28;20027;-20
2022/06/05 12:05:59;;;;;;;8.45;7.75;;;;;;;28.62;48.09;100739.75;4990706;28;20029;-20
2022/06/05 12:08:49;;;;;;;8.70;8.00;;;;;;;28.69;48.13;100737.34;4993657;28;20034;-20
2022/06/05 12:11:39;;;;;;;8.90;8.30;;;;;;;28.70;47.90;100725.50;4992616;28;20589;-20